Time;durP1;ratioP1;P1;durP2;ratioP2;P2;SDS_P1;SDS_P2;PMS_P1;PMS_P2;Temp;Humidity;BMP_temperature;BMP_pressure;BME280_temperature;BME280_humidity;BME280_pressure;Samples;Min_cycle;Max_cycle;Signal;HPM_P1;HPM_P2
2021/12/16 00:05:56;;;;;;;14.00;6.37;;;;;;;7.09;100.00;102359.97;7396965;19;20867;-45
2021/12/16 00:08:33;;;;;;;12.23;5.70;;;;;;;7.08;100.00;102346.25;7401259;19;20412;-45
2021/12/16 00:11:14;;;;;;;18.60;5.40;;;;;;;7.08;100.00;102353.06;7397114;19;20493;-47
2021/12/16 00:30:45;;;;;;;18.70;7.23;;;;;;;7.01;100.00;102333.69;7396964;19;20397;-44
2021/12/16 00:33:16;;;;;;;13.97;5.27;;;;;;;6.98;100.00;102343.72;7403088;19;20412;-44
2021/12/16 00:35:48;;;;;;;14.90;7.17;;;;;;;7.00;100.00;102344.72;7395671;19;20436;-46
2021/12/16 00:38:18;;;;;;;12.33;6.93;;;;;;;7.03;100.00;102345.00;7400978;19;20425;-43
2021/12/16 00:40:50;;;;;;;17.43;7.00;;;;;;;7.00;100.00;102342.16;7396958;19;20477;-48
2021/12/16 00:43:26;;;;;;;10.73;4.70;;;;;;;6.95;100.00;102346.00;7403445;19;20390;-44
2021/12/16 00:46:12;;;;;;;16.90;7.17;;;;;;;6.95;100.00;102343.44;7396289;19;20423;-45
2021/12/16 00:49:05;;;;;;;16.40;6.77;;;;;;;7.11;100.00;102337.88;7401817;19;20966;-47
2021/12/16 00:54:17;;;;;;;18.70;7.63;;;;;;;7.00;100.00;102344.72;7406968;19;20393;-48
2021/12/16 00:56:56;;;;;;;24.13;7.90;;;;;;;7.01;100.00;102350.00;7398339;19;20502;-49
2021/12/16 00:59:31;;;;;;;22.37;7.80;;;;;;;7.03;100.00;102353.56;7396683;19;20400;-45
2021/12/16 01:02:12;;;;;;;21.00;8.20;;;;;;;7.03;100.00;102355.25;7402712;19;20610;-49
2021/12/16 01:35:05;;;;;;;23.47;9.50;;;;;;;6.99;100.00;102381.44;7395786;19;20421;-43
2021/12/16 01:38:23;;;;;;;26.30;9.00;;;;;;;6.98;100.00;102384.78;7398289;19;20427;-45
2021/12/16 01:46:37;;;;;;;29.90;11.10;;;;;;;7.01;100.00;102383.34;7392833;19;20427;-46
2021/12/16 01:52:05;;;;;;;39.27;11.40;;;;;;;6.98;100.00;102374.50;7397633;19;20411;-44
2021/12/16 01:54:49;;;;;;;26.67;11.13;;;;;;;6.97;100.00;102385.56;7394824;19;20402;-52
2021/12/16 01:57:28;;;;;;;42.77;12.53;;;;;;;7.04;100.00;102387.84;7398807;19;20422;-47
2021/12/16 02:00:05;;;;;;;41.83;12.77;;;;;;;6.96;100.00;102381.16;7395831;19;20418;-47
2021/12/16 02:02:44;;;;;;;36.80;12.80;;;;;;;7.01;100.00;102385.00;7400019;19;20397;-46
2021/12/16 02:05:28;;;;;;;30.80;13.23;;;;;;;7.01;100.00;102385.00;7393566;19;20937;-44
2021/12/16 02:11:12;;;;;;;38.17;12.93;;;;;;;6.94;100.00;102383.63;7392327;19;20708;-47
2021/12/16 02:27:53;;;;;;;41.00;16.93;;;;;;;6.94;100.00;102392.97;7393982;19;20543;-48
2021/12/16 02:33:35;;;;;;;44.23;16.00;;;;;;;6.93;100.00;102406.59;7399597;19;20448;-47
2021/12/16 02:36:24;;;;;;;43.67;16.10;;;;;;;6.87;100.00;102402.72;7391921;19;20501;-46
2021/12/16 02:39:00;;;;;;;50.40;16.50;;;;;;;6.88;100.00;102399.38;7399224;19;20397;-47
2021/12/16 02:41:30;;;;;;;36.00;15.53;;;;;;;6.88;100.00;102398.50;7392283;19;20874;-46
2021/12/16 02:49:39;;;;;;;41.03;16.60;;;;;;;6.89;100.00;102405.44;7393191;19;20387;-45
2021/12/16 02:52:09;;;;;;;41.83;17.77;;;;;;;6.88;100.00;102409.66;7398724;19;20457;-49
2021/12/16 02:54:41;;;;;;;51.77;18.63;;;;;;;6.91;100.00;102408.13;7392551;19;20390;-49
2021/12/16 02:57:11;;;;;;;49.53;17.37;;;;;;;6.94;100.00;102408.38;7401258;19;20498;-49
2021/12/16 02:59:41;;;;;;;50.50;19.53;;;;;;;6.96;100.00;102406.81;7392872;19;20444;-48
2021/12/16 03:02:15;;;;;;;145.47;75.40;;;;;;;7.03;100.00;102415.16;7397015;19;20415;-43
2021/12/16 03:04:47;;;;;;;56.90;20.40;;;;;;;7.10;100.00;102426.84;7392346;19;20408;-48
2021/12/16 03:07:17;;;;;;;35.23;16.83;;;;;;;6.98;100.00;102423.28;7397049;19;20494;-45
2021/12/16 03:12:56;;;;;;;42.67;17.83;;;;;;;6.97;100.00;102418.91;7397309;19;20398;-49
2021/12/16 03:15:47;;;;;;;60.43;20.10;;;;;;;6.94;100.00;102431.47;7391465;19;20426;-45
2021/12/16 03:18:25;;;;;;;50.43;17.77;;;;;;;6.91;100.00;102431.22;7394634;19;20722;-49
2021/12/16 03:21:01;;;;;;;57.63;19.03;;;;;;;6.90;100.00;102432.88;7391790;19;20476;-49
2021/12/16 03:23:45;;;;;;;50.67;20.60;;;;;;;6.90;100.00;102432.88;7398016;19;20470;-51
2021/12/16 03:26:56;;;;;;;50.10;19.20;;;;;;;6.86;100.00;102436.88;7391017;19;20422;-47
2021/12/16 03:29:51;;;;;;;61.40;21.13;;;;;;;6.88;100.00;102444.69;7392191;19;20386;-43
2021/12/16 03:32:45;;;;;;;56.87;22.50;;;;;;;6.89;100.00;102429.41;7401116;19;20639;-43
2021/12/16 03:35:29;;;;;;;60.20;19.33;;;;;;;6.89;100.00;102431.97;7399148;19;20429;-49
2021/12/16 03:38:01;;;;;;;49.33;19.90;;;;;;;6.87;100.00;102442.91;7401977;19;20457;-46
2021/12/16 03:40:31;;;;;;;52.17;20.20;;;;;;;6.89;100.00;102436.22;7398768;19;20410;-49
2021/12/16 03:43:08;;;;;;;58.87;22.47;;;;;;;6.89;100.00;102437.09;7405182;19;20663;-45
2021/12/16 03:48:33;;;;;;;65.87;21.60;;;;;;;6.82;100.00;102429.66;7402866;19;20425;-48
2021/12/16 03:51:03;;;;;;;66.17;23.87;;;;;;;6.85;100.00;102429.03;7398908;19;20416;-45
2021/12/16 03:53:32;;;;;;;59.80;25.63;;;;;;;6.89;100.00;102431.97;7409233;19;20726;-47
2021/12/16 03:56:02;;;;;;;62.80;23.60;;;;;;;6.89;100.00;102431.97;7397858;19;20489;-46
2021/12/16 03:58:34;;;;;;;58.30;22.30;;;;;;;6.88;100.00;102440.44;7400322;19;20424;-44
2021/12/16 04:01:07;;;;;;;60.10;23.87;;;;;;;6.86;100.00;102449.69;7398266;19;20706;-50
2021/12/16 04:03:38;;;;;;;59.40;24.40;;;;;;;6.86;100.00;102446.22;7404424;19;20411;-49
2021/12/16 04:06:08;;;;;;;79.63;25.27;;;;;;;6.88;100.00;102466.09;7397681;19;20483;-49
2021/12/16 04:08:38;;;;;;;60.80;24.70;;;;;;;6.86;100.00;102467.66;7403587;19;20397;-51
2021/12/16 04:11:12;;;;;;;73.97;26.13;;;;;;;6.89;100.00;102457.63;7397842;19;21269;-52
2021/12/16 04:13:53;;;;;;;70.00;23.20;;;;;;;6.89;100.00;102467.91;7402607;19;20954;-45
2021/12/16 04:16:24;;;;;;;73.50;25.97;;;;;;;6.93;100.00;102468.19;7397038;19;20479;-52
2021/12/16 04:19:12;;;;;;;65.87;24.93;;;;;;;6.96;100.00;102465.84;7404113;19;20633;-48
2021/12/16 04:21:43;;;;;;;72.93;24.93;;;;;;;6.91;100.00;102475.72;7397578;19;20430;-47
2021/12/16 04:24:13;;;;;;;73.37;24.00;;;;;;;6.89;100.00;102475.59;7403625;19;20454;-49
2021/12/16 04:26:45;;;;;;;81.53;25.00;;;;;;;6.93;100.00;102478.44;7396228;19;20482;-47
2021/12/16 04:29:18;;;;;;;81.47;27.07;;;;;;;6.88;100.00;102467.78;7403767;19;20447;-49
2021/12/16 04:31:48;;;;;;;82.40;26.67;;;;;;;6.84;100.00;102471.78;7402687;19;20422;-45
2021/12/16 04:34:18;;;;;;;98.90;26.53;;;;;;;6.91;100.00;102474.84;7401818;19;20717;-50
2021/12/16 04:36:47;;;;;;;82.27;25.23;;;;;;;6.90;100.00;102479.06;7400661;19;20428;-46
2021/12/16 04:39:21;;;;;;;71.00;26.47;;;;;;;6.95;100.00;102482.03;7403216;19;20466;-46
2021/12/16 04:41:53;;;;;;;78.73;25.50;;;;;;;6.93;100.00;102483.56;7402273;19;20676;-48
2021/12/16 04:44:27;;;;;;;87.60;27.60;;;;;;;6.96;100.00;102494.06;7396626;19;20861;-49
2021/12/16 04:46:58;;;;;;;77.80;28.80;;;;;;;7.03;100.00;102493.84;7400484;19;20883;-48
2021/12/16 04:49:28;;;;;;;98.67;25.60;;;;;;;7.02;100.00;102497.16;7400584;19;20398;-48
2021/12/16 04:52:00;;;;;;;87.37;27.53;;;;;;;7.02;100.00;102500.63;7401288;19;20386;-47
2021/12/16 04:54:30;;;;;;;72.43;24.30;;;;;;;7.04;100.00;102511.03;7397457;19;20412;-45
2021/12/16 04:57:01;;;;;;;71.70;26.93;;;;;;;7.01;100.00;102505.63;7400287;19;20422;-48
2021/12/16 04:59:34;;;;;;;75.30;25.50;;;;;;;6.98;100.00;102513.97;7397111;19;20470;-45
2021/12/16 05:02:09;;;;;;;72.67;24.60;;;;;;;7.02;100.00;102520.25;7402357;19;20715;-45
2021/12/16 05:04:39;;;;;;;81.10;28.13;;;;;;;7.10;100.00;102524.41;7396141;19;20384;-51
2021/12/16 05:07:09;;;;;;;71.70;26.10;;;;;;;7.14;100.00;102531.56;7400091;19;20427;-48
2021/12/16 05:12:25;;;;;;;71.87;26.30;;;;;;;7.05;100.00;102543.63;7401478;19;20403;-44
2021/12/16 05:14:57;;;;;;;75.93;26.03;;;;;;;7.12;100.00;102558.78;7395950;19;20406;-46
2021/12/16 05:17:31;;;;;;;96.83;27.60;;;;;;;7.25;100.00;102570.09;7399985;19;20422;-47
2021/12/16 05:20:07;;;;;;;93.63;27.37;;;;;;;7.21;100.00;102575.72;7395477;19;20898;-46
2021/12/16 05:25:30;;;;;;;66.23;24.93;;;;;;;7.23;100.00;102569.06;7393967;19;20422;-49
2021/12/16 05:28:00;;;;;;;71.90;27.97;;;;;;;7.32;100.00;102569.84;7400198;19;20497;-47
2021/12/16 05:30:32;;;;;;;74.83;27.30;;;;;;;7.27;100.00;102568.53;7395360;19;20430;-45
2021/12/16 05:33:01;;;;;;;91.77;26.20;;;;;;;7.26;100.00;102572.78;7401504;19;20400;-45
2021/12/16 05:35:31;;;;;;;64.53;24.10;;;;;;;7.21;100.00;102565.47;7394430;19;20415;-48
2021/12/16 05:38:00;;;;;;;69.20;24.53;;;;;;;7.21;100.00;102568.94;7399778;19;20470;-49
2021/12/16 05:40:31;;;;;;;69.53;23.80;;;;;;;7.18;100.00;102565.22;7391563;19;20484;-50
2021/12/16 05:43:04;;;;;;;56.53;20.60;;;;;;;7.13;100.00;102568.28;7400519;19;20388;-49
2021/12/16 05:45:37;;;;;;;74.10;22.20;;;;;;;7.08;100.00;102561.84;7394297;19;20557;-48
2021/12/16 05:48:09;;;;;;;78.60;21.80;;;;;;;7.10;100.00;102560.34;7399238;19;20418;-53
2021/12/16 05:50:42;;;;;;;60.20;20.57;;;;;;;7.19;100.00;102574.72;7394423;19;20415;-47
2021/12/16 05:53:12;;;;;;;52.60;19.00;;;;;;;7.18;100.00;102567.78;7400766;19;20454;-50
2021/12/16 05:55:41;;;;;;;47.47;19.70;;;;;;;7.14;100.00;102577.78;7391602;19;20497;-53
2021/12/16 05:58:16;;;;;;;59.03;21.83;;;;;;;7.20;100.00;102582.56;7398799;19;20768;-51
2021/12/16 06:00:51;;;;;;;57.40;21.80;;;;;;;7.18;100.00;102578.94;7394315;19;20593;-54
2021/12/16 06:03:21;;;;;;;48.43;19.83;;;;;;;7.21;100.00;102573.16;7399316;19;20858;-46
2021/12/16 06:05:53;;;;;;;61.07;21.70;;;;;;;7.19;100.00;102585.88;7393990;19;20468;-49
2021/12/16 06:08:23;;;;;;;58.53;20.20;;;;;;;7.22;100.00;102585.25;7398582;19;20433;-49
2021/12/16 06:13:39;;;;;;;53.30;21.10;;;;;;;7.22;100.00;102591.28;7400083;19;20386;-45
2021/12/16 06:27:06;;;;;;;51.70;19.60;;;;;;;7.35;100.00;102623.13;7397278;19;20486;-44
2021/12/16 06:29:36;;;;;;;50.60;18.70;;;;;;;7.34;100.00;102631.59;7393488;19;20444;-45
2021/12/16 06:32:09;;;;;;;40.73;18.13;;;;;;;7.30;100.00;102622.75;7399478;19;20390;-49
2021/12/16 06:34:39;;;;;;;53.20;18.73;;;;;;;7.41;100.00;102632.25;7393055;19;20457;-49
2021/12/16 06:37:10;;;;;;;52.30;19.90;;;;;;;7.36;100.00;102633.53;7397821;19;20421;-44
2021/12/16 06:39:40;;;;;;;47.03;18.87;;;;;;;7.36;100.00;102646.38;7393839;19;20487;-48
2021/12/16 06:42:11;;;;;;;42.67;19.47;;;;;;;7.42;100.00;102646.91;7399057;19;20885;-44
2021/12/16 06:44:45;;;;;;;43.03;17.43;;;;;;;7.36;100.00;102645.47;7393351;19;20869;-45
2021/12/16 06:47:22;;;;;;;41.53;17.87;;;;;;;7.41;100.00;102639.97;7397296;19;20475;-45
2021/12/16 06:49:54;;;;;;;48.97;18.77;;;;;;;7.39;100.00;102644.06;7393108;19;20423;-46
2021/12/16 06:52:30;;;;;;;47.40;17.03;;;;;;;7.36;100.00;102650.59;7398704;19;20388;-44
2021/12/16 06:55:13;;;;;;;43.07;16.53;;;;;;;7.37;100.00;102643.03;7392459;19;20429;-47
2021/12/16 06:57:51;;;;;;;47.23;16.93;;;;;;;7.44;100.00;102644.47;7396576;19;20710;-44
2021/12/16 07:00:30;;;;;;;44.37;16.07;;;;;;;7.37;100.00;102658.44;7392522;19;20895;-45
2021/12/16 07:03:05;;;;;;;39.93;16.73;;;;;;;7.35;100.00;102651.38;7398283;19;20392;-46
2021/12/16 07:05:38;;;;;;;41.83;17.27;;;;;;;7.41;100.00;102655.38;7391104;19;20522;-49
2021/12/16 07:08:09;;;;;;;39.20;16.20;;;;;;;7.41;100.00;102660.50;7396550;19;20478;-50
2021/12/16 07:10:45;;;;;;;84.33;36.27;;;;;;;7.47;100.00;102664.34;7391495;19;20693;-51
2021/12/16 07:13:28;;;;;;;74.60;35.57;;;;;;;7.48;100.00;102671.31;7398086;19;20718;-48
2021/12/16 07:15:58;;;;;;;58.57;19.13;;;;;;;7.47;100.00;102679.75;7390094;19;20418;-48
2021/12/16 07:18:30;;;;;;;37.07;14.90;;;;;;;7.48;100.00;102684.16;7396230;19;20435;-46
2021/12/16 07:21:00;;;;;;;65.53;30.73;;;;;;;7.66;100.00;102690.84;7392424;19;20429;-45
2021/12/16 07:23:30;;;;;;;41.77;15.27;;;;;;;7.56;100.00;102690.84;7398132;19;20382;-51
2021/12/16 07:25:59;;;;;;;50.43;17.30;;;;;;;7.62;100.00;102696.50;7391164;19;20497;-49
2021/12/16 07:28:29;;;;;;;57.17;16.03;;;;;;;7.56;100.00;102704.59;7396174;19;20427;-48
2021/12/16 07:31:00;;;;;;;44.93;14.63;;;;;;;7.54;100.00;102712.94;7392017;19;21270;-52
2021/12/16 07:33:32;;;;;;;38.87;15.60;;;;;;;7.57;100.00;102708.03;7396660;19;20384;-47
2021/12/16 07:36:02;;;;;;;35.23;15.17;;;;;;;7.54;100.00;102705.22;7391138;19;20913;-50
2021/12/16 07:38:32;;;;;;;48.90;15.50;;;;;;;7.50;100.00;102705.72;7395545;19;20444;-46
2021/12/16 07:41:02;;;;;;;56.23;25.60;;;;;;;7.60;100.00;102713.47;7391539;19;20412;-49
2021/12/16 07:43:55;;;;;;;44.73;18.03;;;;;;;7.70;100.00;102720.28;7397486;19;20459;-45
2021/12/16 07:46:31;;;;;;;42.63;17.10;;;;;;;7.65;100.00;102717.28;7390389;19;20419;-50
2021/12/16 07:49:03;;;;;;;39.07;14.70;;;;;;;7.62;100.00;102727.31;7395884;19;20396;-48
2021/12/16 07:51:32;;;;;;;45.20;16.07;;;;;;;7.59;100.00;102721.91;7391114;19;20426;-46
2021/12/16 07:54:02;;;;;;;49.13;17.00;;;;;;;7.57;100.00;102728.59;7397014;19;20477;-49
2021/12/16 07:56:32;;;;;;;46.00;16.63;;;;;;;7.58;100.00;102717.53;7390460;19;20416;-52
2021/12/16 07:59:02;;;;;;;35.93;15.57;;;;;;;7.57;100.00;102723.44;7396627;19;20400;-47
2021/12/16 08:01:31;;;;;;;37.33;14.73;;;;;;;7.62;100.00;102726.41;7390835;19;20916;-44
2021/12/16 08:04:03;;;;;;;31.80;13.60;;;;;;;7.57;100.00;102728.59;7401425;19;20455;-45
2021/12/16 08:06:34;;;;;;;33.97;13.57;;;;;;;7.57;100.00;102728.59;7388359;19;20439;-49
2021/12/16 08:09:08;;;;;;;27.63;12.60;;;;;;;7.56;100.00;102731.94;7396556;19;20660;-49
2021/12/16 08:11:40;;;;;;;31.57;13.70;;;;;;;7.52;100.00;102722.16;7390639;19;20422;-45
2021/12/16 08:14:11;;;;;;;39.73;14.03;;;;;;;7.53;100.00;102719.72;7396929;19;20709;-48
2021/12/16 08:16:41;;;;;;;31.87;13.47;;;;;;;7.55;100.00;102709.59;7389053;19;20477;-44
2021/12/16 08:19:14;;;;;;;32.43;13.47;;;;;;;7.52;100.00;102710.22;7401883;19;20404;-43
2021/12/16 08:21:43;;;;;;;27.80;12.63;;;;;;;7.55;100.00;102719.88;7397451;19;20709;-52
2021/12/16 08:24:16;;;;;;;34.30;14.67;;;;;;;7.55;100.00;102723.31;7402438;19;20402;-44
2021/12/16 08:26:47;;;;;;;25.37;12.07;;;;;;;7.55;100.00;102725.00;7395568;19;20418;-46
2021/12/16 08:29:17;;;;;;;28.33;12.90;;;;;;;7.63;100.00;102728.25;7403600;19;20388;-46
2021/12/16 08:31:47;;;;;;;34.80;13.77;;;;;;;7.61;100.00;102730.66;7405108;19;20503;-44
2021/12/16 08:34:19;;;;;;;38.17;13.37;;;;;;;7.62;100.00;102732.47;7403362;19;20398;-51
2021/12/16 08:36:49;;;;;;;38.67;13.13;;;;;;;7.57;100.00;102732.06;7401143;19;20923;-46
2021/12/16 08:39:19;;;;;;;31.23;11.67;;;;;;;7.56;100.00;102734.50;7402687;19;20528;-50
2021/12/16 08:41:56;;;;;;;23.67;10.10;;;;;;;7.52;100.00;102740.13;7401375;19;20682;-45
2021/12/16 08:44:27;;;;;;;24.77;11.07;;;;;;;7.51;100.00;102746.97;7396829;19;20399;-47
2021/12/16 08:47:00;;;;;;;35.00;12.20;;;;;;;7.49;100.00;102750.16;7400625;19;20490;-52
2021/12/16 08:49:32;;;;;;;23.10;10.20;;;;;;;7.51;100.00;102753.75;7397175;19;20388;-46
2021/12/16 08:52:06;;;;;;;27.17;10.40;;;;;;;7.50;100.00;102772.50;7402415;19;20395;-48
2021/12/16 08:54:35;;;;;;;29.60;11.47;;;;;;;7.53;100.00;102775.31;7397604;19;20413;-48
2021/12/16 08:57:06;;;;;;;25.33;10.63;;;;;;;7.53;100.00;102783.03;7400602;19;20408;-51
2021/12/16 08:59:36;;;;;;;23.17;10.17;;;;;;;7.52;100.00;102783.81;7395301;19;20390;-46
2021/12/16 09:02:07;;;;;;;25.63;10.73;;;;;;;7.53;100.00;102780.47;7402701;19;20451;-49
2021/12/16 09:04:40;;;;;;;26.20;8.70;;;;;;;7.57;100.00;102774.84;7396565;19;20395;-49
2021/12/16 09:07:12;;;;;;;22.23;9.60;;;;;;;7.54;100.00;102770.34;7401052;19;20415;-46
2021/12/16 09:09:43;;;;;;;22.83;8.60;;;;;;;7.57;100.00;102769.69;7395432;19;20421;-49
2021/12/16 09:12:48;;;;;;;22.67;9.17;;;;;;;7.51;100.00;102774.31;7402205;19;20384;-52
2021/12/16 09:15:19;;;;;;;16.97;8.40;;;;;;;7.48;100.00;102764.66;7395971;19;20414;-49
2021/12/16 09:17:48;;;;;;;18.73;8.27;;;;;;;7.41;100.00;102758.13;7399725;19;20422;-48
2021/12/16 09:20:21;;;;;;;19.60;8.17;;;;;;;7.41;100.00;102763.25;7395316;19;20419;-46
2021/12/16 09:22:51;;;;;;;19.53;8.23;;;;;;;7.52;100.00;102766.75;7401699;19;20387;-46
2021/12/16 09:25:22;;;;;;;19.43;8.57;;;;;;;7.64;100.00;102777.16;7395277;19;20427;-49
2021/12/16 09:27:52;;;;;;;22.30;8.67;;;;;;;7.66;100.00;102780.78;7400131;19;20470;-49
2021/12/16 09:30:24;;;;;;;28.27;10.80;;;;;;;7.72;100.00;102780.41;7395234;19;20433;-44
2021/12/16 09:32:57;;;;;;;38.33;18.93;;;;;;;7.76;100.00;102779.00;7401349;19;20372;-50
2021/12/16 09:35:32;;;;;;;32.37;14.90;;;;;;;7.79;100.00;102780.16;7392959;19;20418;-48
2021/12/16 09:38:03;;;;;;;25.17;9.90;;;;;;;7.86;100.00;102791.88;7399573;19;20435;-45
2021/12/16 09:40:35;;;;;;;20.70;9.43;;;;;;;7.96;100.00;102794.44;7394370;19;20430;-45
2021/12/16 09:43:06;;;;;;;28.03;10.60;;;;;;;7.95;100.00;102805.50;7401125;19;20458;-46
2021/12/16 09:45:53;;;;;;;17.57;8.07;;;;;;;7.92;100.00;102812.03;7394889;19;20482;-45
2021/12/16 09:48:23;;;;;;;12.90;7.97;;;;;;;7.95;100.00;102805.50;7399289;19;20408;-43
2021/12/16 09:50:56;;;;;;;23.50;8.67;;;;;;;8.02;100.00;102822.34;7393977;19;20423;-47
2021/12/16 09:53:26;;;;;;;18.57;7.50;;;;;;;7.91;100.00;102817.97;7399705;19;20384;-46
2021/12/16 09:55:59;;;;;;;19.30;8.03;;;;;;;7.97;100.00;102805.63;7394082;19;20487;-48
2021/12/16 09:58:30;;;;;;;20.73;7.80;;;;;;;8.03;100.00;102811.28;7401309;19;20487;-46
2021/12/16 10:00:59;;;;;;;16.40;7.13;;;;;;;8.04;100.00;102817.31;7393451;19;20446;-44
2021/12/16 10:03:29;;;;;;;20.30;7.33;;;;;;;8.03;100.00;102805.22;7400170;19;20674;-44
2021/12/16 10:06:02;;;;;;;18.30;6.77;;;;;;;8.15;100.00;102820.81;7393610;19;20433;-46
2021/12/16 10:08:32;;;;;;;13.60;6.33;;;;;;;8.08;100.00;102816.81;7398085;19;20426;-46
2021/12/16 10:11:01;;;;;;;14.07;6.10;;;;;;;8.07;100.00;102826.22;7392389;19;20427;-44
2021/12/16 10:13:41;;;;;;;13.60;5.70;;;;;;;8.10;100.00;102830.69;7399780;19;20391;-44
2021/12/16 10:18:52;;;;;;;15.07;5.47;;;;;;;8.05;100.00;102824.28;7399715;19;20386;-45
2021/12/16 10:21:28;;;;;;;14.03;5.53;;;;;;;8.01;100.00;102819.63;7392235;19;20449;-46
2021/12/16 10:23:57;;;;;;;14.10;4.70;;;;;;;8.08;100.00;102828.03;7399694;19;20455;-45
2021/12/16 10:26:28;;;;;;;14.10;5.30;;;;;;;8.04;100.00;102832.75;7392638;19;20404;-49
2021/12/16 10:29:02;;;;;;;16.00;5.10;;;;;;;7.95;100.00;102833.75;7397843;19;20841;-45
2021/12/16 10:31:35;;;;;;;16.87;4.90;;;;;;;8.02;100.00;102836.88;7393652;19;20427;-47
2021/12/16 10:34:08;;;;;;;12.70;4.40;;;;;;;8.11;100.00;102824.81;7399523;19;20400;-48
2021/12/16 10:36:43;;;;;;;13.40;5.03;;;;;;;8.18;100.00;102824.56;7393124;19;20503;-50
2021/12/16 10:39:15;;;;;;;17.17;3.83;;;;;;;8.13;100.00;102830.06;7399980;19;20409;-48
2021/12/16 10:41:46;;;;;;;23.50;4.17;;;;;;;8.20;100.00;102829.84;7390738;19;20429;-44
2021/12/16 10:44:19;;;;;;;18.50;4.97;;;;;;;8.13;100.00;102825.81;7398170;19;20451;-47
2021/12/16 10:46:54;;;;;;;11.70;5.60;;;;;;;8.19;100.00;102836.63;7396271;19;20923;-45
2021/12/16 10:49:26;;;;;;;16.80;5.00;;;;;;;8.20;100.00;102838.44;7393260;19;20477;-48
2021/12/16 10:52:01;;;;;;;14.73;4.50;;;;;;;8.14;100.00;102850.75;7398781;19;20463;-46
2021/12/16 10:54:34;;;;;;;13.47;5.00;;;;;;;8.00;100.00;102843.56;7393247;19;20464;-44
2021/12/16 10:57:09;;;;;;;17.93;5.30;;;;;;;8.09;100.00;102849.47;7397038;19;20440;-47
2021/12/16 10:59:43;;;;;;;20.30;5.30;;;;;;;8.07;100.00;102856.16;7393205;19;20391;-46
2021/12/16 11:02:16;;;;;;;13.80;5.47;;;;;;;8.12;100.00;102852.31;7397021;19;20399;-43
2021/12/16 11:04:50;;;;;;;14.37;6.13;;;;;;;8.06;100.00;102864.66;7390741;19;20407;-49
2021/12/16 11:07:26;;;;;;;21.17;8.50;;;;;;;8.17;100.00;102863.91;7397036;19;20425;-43
2021/12/16 11:10:02;;;;;;;14.00;6.80;;;;;;;8.11;100.00;102858.22;7391574;19;20422;-44
2021/12/16 11:12:37;;;;;;;18.83;7.60;;;;;;;8.06;100.00;102857.81;7398568;19;20756;-46
2021/12/16 11:15:13;;;;;;;24.50;8.67;;;;;;;8.09;100.00;102875.19;7392214;19;20425;-47
2021/12/16 11:17:45;;;;;;;18.93;8.40;;;;;;;8.09;100.00;102878.66;7396523;19;20491;-44
2021/12/16 11:20:21;;;;;;;22.70;8.10;;;;;;;8.13;100.00;102876.34;7391841;19;20442;-47
2021/12/16 11:22:57;;;;;;;19.13;9.13;;;;;;;8.09;100.00;102876.09;7397669;19;20393;-44
2021/12/16 11:25:30;;;;;;;24.90;9.63;;;;;;;8.04;100.00;102881.59;7390027;19;20427;-45
2021/12/16 11:28:09;;;;;;;25.13;11.27;;;;;;;8.08;100.00;102876.88;7396537;19;20695;-50
2021/12/16 11:30:42;;;;;;;20.77;9.43;;;;;;;8.09;100.00;102876.09;7391645;19;20486;-48
2021/12/16 11:33:16;;;;;;;21.47;7.53;;;;;;;8.06;100.00;102882.66;7397965;19;20455;-46
2021/12/16 11:35:50;;;;;;;19.57;6.83;;;;;;;8.19;100.00;102882.91;7391526;19;20429;-45
2021/12/16 11:38:26;;;;;;;23.77;5.83;;;;;;;8.27;100.00;102882.66;7395932;19;20420;-46
2021/12/16 11:41:12;;;;;;;16.37;6.07;;;;;;;8.35;100.00;102874.84;7390562;19;20960;-45
2021/12/16 11:43:49;;;;;;;18.70;6.33;;;;;;;8.40;100.00;102887.19;7396271;19;20398;-46
2021/12/16 11:46:26;;;;;;;10.33;5.20;;;;;;;8.29;100.00;102888.84;7390433;19;20894;-43
2021/12/16 11:49:22;;;;;;;18.33;5.23;;;;;;;8.22;100.00;102901.16;7398752;19;20379;-46
2021/12/16 11:51:56;;;;;;;16.20;3.77;;;;;;;8.17;100.00;102912.75;7396509;19;20418;-44
2021/12/16 11:54:32;;;;;;;15.30;3.77;;;;;;;8.11;100.00;102922.50;7398398;19;20671;-45
2021/12/16 11:57:07;;;;;;;16.50;3.73;;;;;;;7.96;100.00;102912.69;7402453;19;20784;-42
2021/12/16 11:59:39;;;;;;;12.93;4.47;;;;;;;7.96;100.00;102914.38;7397697;19;20379;-45
2021/12/16 12:02:20;;;;;;;19.00;3.83;;;;;;;7.92;100.00;102918.34;7402486;19;20720;-47
2021/12/16 12:04:50;;;;;;;19.77;3.53;;;;;;;7.93;100.00;102920.16;7398194;19;20407;-51
2021/12/16 12:07:20;;;;;;;13.10;3.33;;;;;;;7.98;100.00;102915.41;7402012;19;20411;-43
2021/12/16 12:09:55;;;;;;;17.30;3.60;;;;;;;8.01;100.00;102917.34;7397529;19;20699;-43
2021/12/16 12:12:43;;;;;;;19.00;3.30;;;;;;;8.08;100.00;102909.38;7404230;19;20651;-43
2021/12/16 12:15:17;;;;;;;18.13;4.03;;;;;;;8.12;100.00;102903.75;7398039;19;20430;-43
2021/12/16 12:17:51;;;;;;;21.77;3.60;;;;;;;8.26;100.00;102916.88;7402400;19;20403;-43
2021/12/16 12:20:22;;;;;;;17.97;4.00;;;;;;;8.22;100.00;102914.03;7396564;19;20707;-42
2021/12/16 12:22:52;;;;;;;18.13;3.83;;;;;;;8.21;100.00;102924.22;7401011;19;20412;-44
2021/12/16 12:25:24;;;;;;;17.20;3.87;;;;;;;8.21;100.00;102919.94;7396309;19;20401;-43
2021/12/16 12:27:54;;;;;;;15.87;3.80;;;;;;;8.15;100.00;102929.72;7401661;19;20423;-46
2021/12/16 12:30:24;;;;;;;11.53;3.27;;;;;;;8.04;100.00;102928.78;7397211;19;20471;-49
2021/12/16 12:32:54;;;;;;;12.57;4.03;;;;;;;8.09;100.00;102936.88;7403057;19;20709;-43
2021/12/16 12:35:26;;;;;;;14.63;4.70;;;;;;;8.06;100.00;102934.06;7396178;19;20411;-49
2021/12/16 12:37:59;;;;;;;17.33;4.30;;;;;;;8.06;100.00;102946.91;7400243;19;20419;-48
2021/12/16 12:40:35;;;;;;;20.23;4.80;;;;;;;8.10;100.00;102943.81;7398175;19;20439;-49
2021/12/16 12:43:09;;;;;;;19.80;4.73;;;;;;;8.11;100.00;102943.97;7400802;19;20388;-51
2021/12/16 12:45:41;;;;;;;19.07;4.50;;;;;;;8.06;100.00;102946.91;7396832;19;20433;-47
2021/12/16 12:48:14;;;;;;;20.40;4.60;;;;;;;8.01;100.00;102940.47;7401614;19;20428;-46
2021/12/16 12:50:47;;;;;;;15.87;4.53;;;;;;;8.05;100.00;102939.97;7398869;19;20732;-46
2021/12/16 12:53:19;;;;;;;17.60;4.20;;;;;;;8.09;100.00;102936.88;7406254;19;20399;-45
2021/12/16 12:55:56;;;;;;;25.33;4.70;;;;;;;8.36;100.00;102932.34;7397121;19;20430;-47
2021/12/16 12:58:28;;;;;;;22.43;5.17;;;;;;;8.23;100.00;102931.28;7401383;19;20660;-46
2021/12/16 13:01:00;;;;;;;23.00;4.77;;;;;;;8.36;100.00;102927.19;7396868;19;20486;-47
2021/12/16 13:03:32;;;;;;;26.20;5.40;;;;;;;8.46;100.00;102924.63;7400030;19;20388;-44
2021/12/16 13:06:04;;;;;;;20.63;4.10;;;;;;;8.72;100.00;102928.53;7396720;19;20410;-49
2021/12/16 13:08:37;;;;;;;22.93;3.90;;;;;;;8.90;100.00;102944.63;7400217;19;20411;-49
2021/12/16 13:11:12;;;;;;;18.87;4.03;;;;;;;9.11;100.00;102954.00;7396229;19;20430;-44
2021/12/16 13:14:01;;;;;;;13.10;4.10;;;;;;;8.81;100.00;102958.41;7402991;19;20862;-44
2021/12/16 13:25:26;;;;;;;18.00;4.50;;;;;;;8.41;100.00;102951.63;7395897;19;20402;-47
2021/12/16 13:28:03;;;;;;;21.30;5.23;;;;;;;8.43;100.00;102965.53;7400744;19;20422;-43
2021/12/16 13:30:39;;;;;;;25.83;4.73;;;;;;;8.30;100.00;102947.25;7396046;19;20421;-46
2021/12/16 13:33:19;;;;;;;16.70;4.00;;;;;;;8.33;100.00;102952.63;7403016;19;21304;-46
2021/12/16 13:36:01;;;;;;;21.70;4.17;;;;;;;8.34;100.00;102964.72;7395266;19;20462;-48
2021/12/16 13:38:39;;;;;;;14.27;3.57;;;;;;;8.31;100.00;102961.91;7400008;19;20426;-49
2021/12/16 13:41:11;;;;;;;16.73;4.67;;;;;;;8.33;100.00;102962.94;7396043;19;20417;-45
2021/12/16 13:43:58;;;;;;;22.67;3.77;;;;;;;8.30;100.00;102958.41;7400175;19;20396;-45
2021/12/16 13:46:36;;;;;;;14.03;3.90;;;;;;;8.26;100.00;102965.75;7394712;19;20482;-43
2021/12/16 14:03:16;;;;;;;18.87;4.60;;;;;;;7.96;100.00;102945.22;7399942;19;20764;-46